createdAt,value
2024-02-20T00:05:09.799Z,6.13
2024-02-20T00:11:00.774Z,4.07
2024-02-20T00:16:54.709Z,6.22
2024-02-20T00:22:41.858Z,6.10
2024-02-20T00:28:30.135Z,5.05
2024-02-20T00:34:17.145Z,4.88
2024-02-20T00:40:05.254Z,4.05
2024-02-20T00:45:52.649Z,4.90
2024-02-20T00:51:39.585Z,5.45
2024-02-20T00:57:27.965Z,4.55
2024-02-20T01:03:14.896Z,6.28
2024-02-20T01:09:04.920Z,4.45
2024-02-20T01:14:51.815Z,4.25
2024-02-20T01:20:40.884Z,4.53
2024-02-20T01:26:31.604Z,5.95
2024-02-20T01:32:18.648Z,3.75
2024-02-20T01:38:06.192Z,5.82
2024-02-20T01:43:53.009Z,5.38
2024-02-20T01:49:39.968Z,4.03
2024-02-20T01:55:58.635Z,5.15
2024-02-20T02:01:51.411Z,3.75
2024-02-20T02:07:39.824Z,4.05
2024-02-20T02:13:26.748Z,4.03
2024-02-20T02:19:13.959Z,5.60
2024-02-20T02:25:08.721Z,4.25
2024-02-20T02:30:55.906Z,5.60
2024-02-20T02:36:46.004Z,4.80
2024-02-20T02:42:36.004Z,5.28
2024-02-20T02:48:23.161Z,6.68
2024-02-20T02:54:12.857Z,7.10
2024-02-20T02:59:59.933Z,3.67
2024-02-20T03:05:47.049Z,6.10
2024-02-20T03:11:35.415Z,3.58
2024-02-20T03:17:22.505Z,5.22
2024-02-20T03:23:09.802Z,5.65
2024-02-20T03:28:57.474Z,4.40
2024-02-20T03:34:45.133Z,3.28
2024-02-20T03:40:32.026Z,5.57
2024-02-20T03:46:19.161Z,4.63
2024-02-20T03:52:06.450Z,4.05
2024-02-20T03:57:55.704Z,5.55
2024-02-20T04:03:42.979Z,4.38
2024-02-20T04:09:29.753Z,4.03
2024-02-20T04:15:16.819Z,5.85
2024-02-20T04:21:03.808Z,6.28
2024-02-20T04:26:51.180Z,3.42
2024-02-20T04:32:37.943Z,4.90
2024-02-20T04:38:24.721Z,4.18
2024-02-20T04:44:11.458Z,6.07
2024-02-20T04:49:59.107Z,6.28
2024-02-20T04:55:46.389Z,5.75
2024-02-20T05:01:34.055Z,6.65
2024-02-20T05:07:21.340Z,3.65
2024-02-20T05:13:08.653Z,4.18
2024-02-20T05:18:55.605Z,4.47
2024-02-20T05:24:45.488Z,7.32
2024-02-20T05:30:32.256Z,5.60
2024-02-20T05:36:19.045Z,3.92
2024-02-20T05:42:06.318Z,5.47
2024-02-20T05:47:53.289Z,3.13
2024-02-20T05:53:40.217Z,5.50
2024-02-20T05:59:29.783Z,4.10
2024-02-20T06:05:16.857Z,5.80
2024-02-20T06:11:03.879Z,5.85
2024-02-20T06:16:50.942Z,5.43
2024-02-20T06:22:37.940Z,5.18
2024-02-20T06:28:25.648Z,5.15
2024-02-20T06:34:12.690Z,6.55
2024-02-20T06:40:00.418Z,5.47
2024-02-20T06:45:47.253Z,4.30
2024-02-20T06:51:34.066Z,3.42
2024-02-20T06:57:21.153Z,4.72
2024-02-20T07:03:08.782Z,5.25
2024-02-20T07:08:55.536Z,5.85
2024-02-20T07:14:42.287Z,5.75
2024-02-20T07:20:29.373Z,4.68
2024-02-20T07:26:19.624Z,7.03
2024-02-20T07:32:07.181Z,5.18
2024-02-20T07:38:03.936Z,5.78
2024-02-20T07:43:53.933Z,5.03
2024-02-20T07:49:41.564Z,5.53
2024-02-20T07:55:28.850Z,7.93
2024-02-20T08:01:18.155Z,5.28
2024-02-20T08:07:11.033Z,4.85
2024-02-20T08:13:00.658Z,6.50
2024-02-20T08:18:48.079Z,4.50
2024-02-20T08:24:35.228Z,6.47
2024-02-20T08:30:24.504Z,4.03
2024-02-20T08:36:11.566Z,5.03
2024-02-20T08:42:00.630Z,6.05
2024-02-20T08:47:47.914Z,4.85
2024-02-20T08:53:34.636Z,5.35
2024-02-20T08:59:21.489Z,6.00
2024-02-20T09:05:12.386Z,4.55
2024-02-20T09:11:05.122Z,6.22
2024-02-20T09:16:52.511Z,6.70
2024-02-20T09:22:40.533Z,4.70
2024-02-20T09:28:28.082Z,5.38
2024-02-20T09:34:14.961Z,4.78
2024-02-20T09:40:02.401Z,55.78
2024-02-20T09:45:54.759Z,80.30
2024-02-20T09:51:43.478Z,72.45
2024-02-20T09:57:30.899Z,81.20
2024-02-20T10:03:18.211Z,81.18
2024-02-20T10:09:05.875Z,76.55
2024-02-20T10:14:53.292Z,79.30
2024-02-20T10:20:40.506Z,72.82
2024-02-20T10:26:32.314Z,84.63
2024-02-20T10:32:23.413Z,64.82
2024-02-20T10:38:13.049Z,84.13
2024-02-20T10:44:00.951Z,86.32
2024-02-20T10:49:49.271Z,87.47
2024-02-20T10:55:38.084Z,81.22
2024-02-20T11:01:27.603Z,98.82
2024-02-20T11:07:14.807Z,90.80
2024-02-20T11:13:12.867Z,88.65
2024-02-20T11:19:00.458Z,90.82
2024-02-20T11:24:50.143Z,86.55
2024-02-20T11:30:39.320Z,89.40
2024-02-20T11:36:27.007Z,61.58
2024-02-20T11:42:21.797Z,89.80
2024-02-20T11:48:11.975Z,113.55
2024-02-20T11:54:09.537Z,112.07
2024-02-20T11:59:57.044Z,111.35
2024-02-20T12:05:44.541Z,103.72
2024-02-20T12:11:31.903Z,106.30
2024-02-20T12:17:18.811Z,98.18
2024-02-20T12:23:05.932Z,97.88
2024-02-20T12:28:56.629Z,111.78
2024-02-20T12:34:49.996Z,135.13
2024-02-20T12:40:40.164Z,144.15
2024-02-20T12:46:27.928Z,142.90
2024-02-20T12:52:18.750Z,129.05
2024-02-20T12:58:06.586Z,139.23
2024-02-20T13:03:54.165Z,142.02
2024-02-20T13:09:45.241Z,142.38
2024-02-20T13:21:21.683Z,161.10
2024-02-20T13:27:11.293Z,164.60
2024-02-20T13:32:59.637Z,162.23
2024-02-20T13:38:48.354Z,181.00
2024-02-20T13:44:40.929Z,176.30
2024-02-20T13:50:34.506Z,185.23
2024-02-20T13:56:28.624Z,174.90
2024-02-20T14:02:16.390Z,170.68
2024-02-20T14:08:03.843Z,165.93
2024-02-20T14:13:56.127Z,164.07
2024-02-20T14:19:44.078Z,160.00
2024-02-20T14:25:38.700Z,15.50
2024-02-20T14:31:25.716Z,144.43
2024-02-20T14:37:13.090Z,33.15
2024-02-20T14:43:05.320Z,156.10
2024-02-20T14:48:53.111Z,175.73
2024-02-20T14:54:40.260Z,163.18
2024-02-20T15:00:27.861Z,36.92
2024-02-20T15:06:14.922Z,40.95
2024-02-20T15:12:01.954Z,60.58
2024-02-20T15:17:49.408Z,52.22
2024-02-20T15:23:45.052Z,59.83
2024-02-20T15:29:57.020Z,76.88
2024-02-20T15:35:46.689Z,59.60
2024-02-20T15:42:06.691Z,61.65
2024-02-20T15:47:58.398Z,73.65
2024-02-20T15:53:51.740Z,60.87
2024-02-20T15:59:38.963Z,77.70
2024-02-20T16:05:25.920Z,46.20
2024-02-20T16:11:17.053Z,156.63
2024-02-20T16:17:23.002Z,159.23
2024-02-20T16:23:10.552Z,211.73
2024-02-20T16:28:57.876Z,18.13
2024-02-20T16:34:45.272Z,11.88
2024-02-20T16:40:40.503Z,12.38
2024-02-20T16:46:27.805Z,8.13
2024-02-20T16:52:17.147Z,13.15
2024-02-20T16:58:33.977Z,9.70
2024-02-20T17:04:36.615Z,10.55
2024-02-20T17:10:24.998Z,10.68
2024-02-20T17:16:18.672Z,14.43
2024-02-20T17:22:08.116Z,27.77
2024-02-20T17:27:54.952Z,20.40
2024-02-20T17:33:42.780Z,21.50
2024-02-20T17:45:43.315Z,2.78
2024-02-20T17:51:35.962Z,2.50
2024-02-20T17:57:30.807Z,9.25
2024-02-20T18:03:22.923Z,16.92
2024-02-20T18:09:11.505Z,17.25
2024-02-20T18:15:09.413Z,22.77
2024-02-20T18:20:58.483Z,23.08
2024-02-20T18:26:55.486Z,28.45
2024-02-20T18:32:53.907Z,15.68
2024-02-20T18:39:15.093Z,26.83
2024-02-20T18:45:14.842Z,16.95
2024-02-20T18:51:50.092Z,19.70
2024-02-20T19:05:41.795Z,23.08
2024-02-20T19:11:30.808Z,19.23
2024-02-20T19:17:22.966Z,20.25
2024-02-20T19:23:19.603Z,19.73
2024-02-20T19:29:32.252Z,13.13
2024-02-20T19:35:23.166Z,20.35
2024-02-20T19:41:29.429Z,16.20
2024-02-20T19:47:16.381Z,15.02
2024-02-20T20:00:11.783Z,15.10
2024-02-20T20:06:08.316Z,9.87
2024-02-20T20:12:43.176Z,23.27
2024-02-20T20:18:40.609Z,14.50
2024-02-20T20:24:27.842Z,21.98
2024-02-20T20:37:37.301Z,18.52
2024-02-20T20:43:30.340Z,21.75
2024-02-20T20:49:17.458Z,14.73
2024-02-20T20:55:05.605Z,12.40
2024-02-20T21:00:57.019Z,5.88
2024-02-20T21:06:46.540Z,9.35
2024-02-20T21:12:34.235Z,71.63
2024-02-20T21:18:21.139Z,104.10
2024-02-20T21:24:34.781Z,15.10
2024-02-20T21:30:21.686Z,90.82
2024-02-20T21:36:11.779Z,99.40
2024-02-20T21:42:00.759Z,85.60
2024-02-20T21:47:51.075Z,97.80
2024-02-20T21:53:42.401Z,6.63
2024-02-20T22:05:46.666Z,78.75
2024-02-20T22:11:43.220Z,7.85
2024-02-20T22:17:30.292Z,76.50
2024-02-20T22:23:24.600Z,23.08
2024-02-20T22:29:13.772Z,64.93
2024-02-20T22:35:02.966Z,31.02
2024-02-20T22:40:50.952Z,14.07
2024-02-20T22:46:39.845Z,61.72
2024-02-20T22:52:27.168Z,48.67
2024-02-20T22:58:17.265Z,39.40
2024-02-20T23:04:12.106Z,55.85
2024-02-20T23:10:02.585Z,36.95
2024-02-20T23:15:49.601Z,26.08
2024-02-20T23:21:53.000Z,41.33
2024-02-20T23:27:46.067Z,48.00
2024-02-20T23:48:41.087Z,36.50
